sensor_id;sensor_type;location;lat;lon;timestamp;P1;durP1;ratioP1;P2;durP2;ratioP2
11620;SDS011;5866;49.094;11.900;2022-08-05T00:00:11;34.17;;;32.28;;
11620;SDS011;5866;49.094;11.900;2022-08-05T00:02:43;20.95;;;19.63;;
11620;SDS011;5866;49.094;11.900;2022-08-05T00:05:17;34.13;;;32.13;;
11620;SDS011;5866;49.094;11.900;2022-08-05T00:08:04;37.83;;;35.72;;
11620;SDS011;5866;49.094;11.900;2022-08-05T00:10:52;23.42;;;22.08;;
11620;SDS011;5866;49.094;11.900;2022-08-05T00:13:20;40.20;;;37.90;;
11620;SDS011;5866;49.094;11.900;2022-08-05T00:16:05;26.33;;;24.70;;
11620;SDS011;5866;49.094;11.900;2022-08-05T00:18:35;14.75;;;13.55;;
11620;SDS011;5866;49.094;11.900;2022-08-05T00:21:03;16.98;;;15.68;;
11620;SDS011;5866;49.094;11.900;2022-08-05T00:23:33;16.08;;;15.07;;
11620;SDS011;5866;49.094;11.900;2022-08-05T00:26:18;16.75;;;15.65;;
11620;SDS011;5866;49.094;11.900;2022-08-05T00:28:47;21.63;;;20.33;;
11620;SDS011;5866;49.094;11.900;2022-08-05T00:31:15;24.55;;;22.92;;
11620;SDS011;5866;49.094;11.900;2022-08-05T00:34:04;35.22;;;33.05;;
11620;SDS011;5866;49.094;11.900;2022-08-05T00:36:51;23.30;;;21.98;;
11620;SDS011;5866;49.094;11.900;2022-08-05T00:39:39;37.97;;;35.80;;
11620;SDS011;5866;49.094;11.900;2022-08-05T00:42:29;40.63;;;38.25;;
11620;SDS011;5866;49.094;11.900;2022-08-05T00:44:58;47.78;;;45.25;;
11620;SDS011;5866;49.094;11.900;2022-08-05T00:47:26;36.10;;;34.00;;
11620;SDS011;5866;49.094;11.900;2022-08-05T00:50:15;32.35;;;30.45;;
11620;SDS011;5866;49.094;11.900;2022-08-05T00:52:42;27.25;;;25.77;;
11620;SDS011;5866;49.094;11.900;2022-08-05T00:55:12;41.58;;;39.28;;
11620;SDS011;5866;49.094;11.900;2022-08-05T00:57:40;38.90;;;36.50;;
11620;SDS011;5866;49.094;11.900;2022-08-05T01:00:24;26.00;;;24.30;;
11620;SDS011;5866;49.094;11.900;2022-08-05T01:02:52;37.67;;;35.53;;
11620;SDS011;5866;49.094;11.900;2022-08-05T01:05:21;38.83;;;36.55;;
11620;SDS011;5866;49.094;11.900;2022-08-05T01:07:50;37.80;;;35.70;;
11620;SDS011;5866;49.094;11.900;2022-08-05T01:10:40;38.17;;;36.05;;
11620;SDS011;5866;49.094;11.900;2022-08-05T01:13:19;35.60;;;33.58;;
11620;SDS011;5866;49.094;11.900;2022-08-05T01:15:55;24.30;;;22.60;;
11620;SDS011;5866;49.094;11.900;2022-08-05T01:18:28;24.73;;;23.13;;
11620;SDS011;5866;49.094;11.900;2022-08-05T01:21:05;34.25;;;32.08;;
11620;SDS011;5866;49.094;11.900;2022-08-05T01:23:53;28.35;;;26.75;;
11620;SDS011;5866;49.094;11.900;2022-08-05T01:26:43;29.90;;;28.20;;
11620;SDS011;5866;49.094;11.900;2022-08-05T01:29:24;20.92;;;19.55;;
11620;SDS011;5866;49.094;11.900;2022-08-05T01:31:57;23.73;;;21.95;;
11620;SDS011;5866;49.094;11.900;2022-08-05T01:34:30;19.38;;;18.27;;
11620;SDS011;5866;49.094;11.900;2022-08-05T01:37:03;27.05;;;25.40;;
11620;SDS011;5866;49.094;11.900;2022-08-05T01:39:34;25.15;;;23.75;;
11620;SDS011;5866;49.094;11.900;2022-08-05T01:42:13;25.42;;;23.83;;
11620;SDS011;5866;49.094;11.900;2022-08-05T01:44:44;20.20;;;18.95;;
11620;SDS011;5866;49.094;11.900;2022-08-05T01:47:19;20.70;;;19.42;;
11620;SDS011;5866;49.094;11.900;2022-08-05T01:49:49;33.92;;;32.00;;
11620;SDS011;5866;49.094;11.900;2022-08-05T01:52:27;40.70;;;38.45;;
11620;SDS011;5866;49.094;11.900;2022-08-05T01:54:58;76.03;;;71.85;;
11620;SDS011;5866;49.094;11.900;2022-08-05T01:57:31;72.03;;;68.25;;
11620;SDS011;5866;49.094;11.900;2022-08-05T02:00:23;57.25;;;54.15;;
11620;SDS011;5866;49.094;11.900;2022-08-05T02:02:56;85.97;;;81.25;;
11620;SDS011;5866;49.094;11.900;2022-08-05T02:05:31;77.13;;;72.90;;
11620;SDS011;5866;49.094;11.900;2022-08-05T02:08:01;97.20;;;92.10;;
11620;SDS011;5866;49.094;11.900;2022-08-05T02:10:31;75.10;;;70.63;;
11620;SDS011;5866;49.094;11.900;2022-08-05T02:13:07;97.03;;;91.90;;
11620;SDS011;5866;49.094;11.900;2022-08-05T02:15:44;109.80;;;104.07;;
11620;SDS011;5866;49.094;11.900;2022-08-05T02:18:17;19.98;;;18.88;;
11620;SDS011;5866;49.094;11.900;2022-08-05T02:21:02;21.95;;;20.73;;
11620;SDS011;5866;49.094;11.900;2022-08-05T02:23:41;20.40;;;19.30;;
11620;SDS011;5866;49.094;11.900;2022-08-05T02:26:11;27.63;;;25.95;;
11620;SDS011;5866;49.094;11.900;2022-08-05T02:28:42;41.25;;;38.97;;
11620;SDS011;5866;49.094;11.900;2022-08-05T02:31:16;22.17;;;20.67;;
11620;SDS011;5866;49.094;11.900;2022-08-05T02:34:00;32.63;;;30.65;;
11620;SDS011;5866;49.094;11.900;2022-08-05T02:36:30;21.52;;;20.25;;
11620;SDS011;5866;49.094;11.900;2022-08-05T02:39:02;24.02;;;22.42;;
11620;SDS011;5866;49.094;11.900;2022-08-05T02:41:34;24.88;;;23.30;;
11620;SDS011;5866;49.094;11.900;2022-08-05T02:44:23;26.20;;;24.70;;
11620;SDS011;5866;49.094;11.900;2022-08-05T02:46:54;24.25;;;22.90;;
11620;SDS011;5866;49.094;11.900;2022-08-05T02:49:26;30.48;;;28.67;;
11620;SDS011;5866;49.094;11.900;2022-08-05T02:52:03;30.98;;;29.17;;
11620;SDS011;5866;49.094;11.900;2022-08-05T02:54:34;25.58;;;24.17;;
11620;SDS011;5866;49.094;11.900;2022-08-05T02:57:09;21.38;;;20.17;;
11620;SDS011;5866;49.094;11.900;2022-08-05T02:59:59;27.73;;;26.02;;
11620;SDS011;5866;49.094;11.900;2022-08-05T03:02:28;48.92;;;46.22;;
11620;SDS011;5866;49.094;11.900;2022-08-05T03:05:00;25.48;;;23.98;;
11620;SDS011;5866;49.094;11.900;2022-08-05T03:07:29;49.60;;;46.90;;
11620;SDS011;5866;49.094;11.900;2022-08-05T03:10:18;43.88;;;41.40;;
11620;SDS011;5866;49.094;11.900;2022-08-05T03:12:50;36.40;;;34.30;;
11620;SDS011;5866;49.094;11.900;2022-08-05T03:15:18;44.60;;;42.20;;
11620;SDS011;5866;49.094;11.900;2022-08-05T03:17:50;34.08;;;32.20;;
11620;SDS011;5866;49.094;11.900;2022-08-05T03:20:21;37.55;;;35.45;;
11620;SDS011;5866;49.094;11.900;2022-08-05T03:22:49;39.78;;;37.53;;
11620;SDS011;5866;49.094;11.900;2022-08-05T03:25:22;59.80;;;56.15;;
11620;SDS011;5866;49.094;11.900;2022-08-05T03:28:10;62.30;;;58.88;;
11620;SDS011;5866;49.094;11.900;2022-08-05T03:30:39;65.38;;;61.90;;
11620;SDS011;5866;49.094;11.900;2022-08-05T03:33:09;70.93;;;67.03;;
11620;SDS011;5866;49.094;11.900;2022-08-05T03:35:37;78.10;;;73.97;;
11620;SDS011;5866;49.094;11.900;2022-08-05T03:38:07;80.70;;;76.32;;
11620;SDS011;5866;49.094;11.900;2022-08-05T03:40:38;45.30;;;42.78;;
11620;SDS011;5866;49.094;11.900;2022-08-05T03:43:10;84.60;;;79.68;;
11620;SDS011;5866;49.094;11.900;2022-08-05T03:45:58;81.95;;;77.57;;
11620;SDS011;5866;49.094;11.900;2022-08-05T03:48:28;77.35;;;73.10;;
11620;SDS011;5866;49.094;11.900;2022-08-05T03:51:03;79.25;;;75.05;;
11620;SDS011;5866;49.094;11.900;2022-08-05T03:53:59;79.63;;;75.30;;
11620;SDS011;5866;49.094;11.900;2022-08-05T03:56:53;83.00;;;78.50;;
11620;SDS011;5866;49.094;11.900;2022-08-05T03:59:26;84.28;;;79.70;;
11620;SDS011;5866;49.094;11.900;2022-08-05T04:02:12;82.80;;;78.40;;
11620;SDS011;5866;49.094;11.900;2022-08-05T04:05:04;87.80;;;83.07;;
11620;SDS011;5866;49.094;11.900;2022-08-05T04:07:35;34.30;;;32.28;;
11620;SDS011;5866;49.094;11.900;2022-08-05T04:10:24;31.17;;;29.27;;
11620;SDS011;5866;49.094;11.900;2022-08-05T04:12:57;37.63;;;35.47;;
11620;SDS011;5866;49.094;11.900;2022-08-05T04:15:25;53.55;;;50.60;;
11620;SDS011;5866;49.094;11.900;2022-08-05T04:18:01;41.67;;;39.17;;
11620;SDS011;5866;49.094;11.900;2022-08-05T04:20:36;24.48;;;22.85;;
11620;SDS011;5866;49.094;11.900;2022-08-05T04:23:06;23.67;;;22.02;;
11620;SDS011;5866;49.094;11.900;2022-08-05T04:25:41;19.38;;;18.17;;
11620;SDS011;5866;49.094;11.900;2022-08-05T04:28:26;17.30;;;16.23;;
11620;SDS011;5866;49.094;11.900;2022-08-05T04:30:57;21.35;;;20.08;;
11620;SDS011;5866;49.094;11.900;2022-08-05T04:33:26;22.33;;;21.05;;
11620;SDS011;5866;49.094;11.900;2022-08-05T04:36:16;41.90;;;39.30;;
11620;SDS011;5866;49.094;11.900;2022-08-05T04:39:04;27.23;;;25.63;;
11620;SDS011;5866;49.094;11.900;2022-08-05T04:41:32;35.47;;;33.38;;
11620;SDS011;5866;49.094;11.900;2022-08-05T04:44:03;92.57;;;87.53;;
11620;SDS011;5866;49.094;11.900;2022-08-05T04:46:35;107.40;;;101.70;;
11620;SDS011;5866;49.094;11.900;2022-08-05T04:49:03;107.00;;;101.22;;
11620;SDS011;5866;49.094;11.900;2022-08-05T04:51:38;99.80;;;94.65;;
11620;SDS011;5866;49.094;11.900;2022-08-05T04:54:07;88.82;;;84.00;;
11620;SDS011;5866;49.094;11.900;2022-08-05T04:56:37;81.95;;;77.60;;
11620;SDS011;5866;49.094;11.900;2022-08-05T04:59:05;62.08;;;58.63;;
11620;SDS011;5866;49.094;11.900;2022-08-05T05:01:49;59.50;;;56.20;;
11620;SDS011;5866;49.094;11.900;2022-08-05T05:04:33;36.00;;;33.90;;
11620;SDS011;5866;49.094;11.900;2022-08-05T05:07:04;34.20;;;32.25;;
11620;SDS011;5866;49.094;11.900;2022-08-05T05:09:34;33.10;;;31.27;;
11620;SDS011;5866;49.094;11.900;2022-08-05T05:12:03;40.35;;;38.17;;
11620;SDS011;5866;49.094;11.900;2022-08-05T05:14:32;35.22;;;33.33;;
11620;SDS011;5866;49.094;11.900;2022-08-05T05:17:01;12.50;;;11.73;;
11620;SDS011;5866;49.094;11.900;2022-08-05T05:19:34;12.60;;;11.90;;
11620;SDS011;5866;49.094;11.900;2022-08-05T05:22:13;11.48;;;10.77;;
11620;SDS011;5866;49.094;11.900;2022-08-05T05:24:51;13.32;;;12.52;;
11620;SDS011;5866;49.094;11.900;2022-08-05T05:27:25;47.17;;;44.45;;
11620;SDS011;5866;49.094;11.900;2022-08-05T05:30:12;100.20;;;94.82;;
11620;SDS011;5866;49.094;11.900;2022-08-05T05:32:59;38.03;;;35.65;;
11620;SDS011;5866;49.094;11.900;2022-08-05T05:35:39;38.50;;;36.28;;
11620;SDS011;5866;49.094;11.900;2022-08-05T05:38:09;136.63;;;129.68;;
11620;SDS011;5866;49.094;11.900;2022-08-05T05:40:39;36.47;;;34.35;;
11620;SDS011;5866;49.094;11.900;2022-08-05T05:43:16;37.85;;;35.75;;
11620;SDS011;5866;49.094;11.900;2022-08-05T05:46:04;42.45;;;40.05;;
11620;SDS011;5866;49.094;11.900;2022-08-05T05:48:41;84.78;;;80.25;;
11620;SDS011;5866;49.094;11.900;2022-08-05T05:51:09;53.03;;;50.03;;
11620;SDS011;5866;49.094;11.900;2022-08-05T05:53:42;36.33;;;34.30;;
11620;SDS011;5866;49.094;11.900;2022-08-05T05:56:23;27.73;;;26.08;;
11620;SDS011;5866;49.094;11.900;2022-08-05T05:58:59;31.63;;;29.92;;
11620;SDS011;5866;49.094;11.900;2022-08-05T06:01:30;27.95;;;26.38;;
11620;SDS011;5866;49.094;11.900;2022-08-05T06:04:03;24.02;;;22.73;;
11620;SDS011;5866;49.094;11.900;2022-08-05T06:06:32;48.65;;;46.08;;
11620;SDS011;5866;49.094;11.900;2022-08-05T06:09:01;39.72;;;37.55;;
11620;SDS011;5866;49.094;11.900;2022-08-05T06:11:30;52.13;;;49.22;;
11620;SDS011;5866;49.094;11.900;2022-08-05T06:13:58;53.97;;;51.13;;
11620;SDS011;5866;49.094;11.900;2022-08-05T06:16:26;52.95;;;50.00;;
11620;SDS011;5866;49.094;11.900;2022-08-05T06:19:02;74.35;;;70.40;;
11620;SDS011;5866;49.094;11.900;2022-08-05T06:21:33;93.88;;;89.07;;
11620;SDS011;5866;49.094;11.900;2022-08-05T06:24:05;112.78;;;106.97;;
11620;SDS011;5866;49.094;11.900;2022-08-05T06:26:37;95.10;;;90.22;;
11620;SDS011;5866;49.094;11.900;2022-08-05T06:29:17;102.78;;;97.53;;
11620;SDS011;5866;49.094;11.900;2022-08-05T06:32:05;122.82;;;116.25;;
11620;SDS011;5866;49.094;11.900;2022-08-05T06:34:51;144.05;;;136.68;;
11620;SDS011;5866;49.094;11.900;2022-08-05T06:37:22;131.32;;;124.70;;
11620;SDS011;5866;49.094;11.900;2022-08-05T06:40:12;133.20;;;126.30;;
11620;SDS011;5866;49.094;11.900;2022-08-05T06:42:46;127.72;;;121.28;;
11620;SDS011;5866;49.094;11.900;2022-08-05T06:45:17;120.85;;;114.75;;
11620;SDS011;5866;49.094;11.900;2022-08-05T06:48:05;125.15;;;118.82;;
11620;SDS011;5866;49.094;11.900;2022-08-05T06:50:53;127.80;;;121.35;;
11620;SDS011;5866;49.094;11.900;2022-08-05T06:53:20;105.25;;;99.82;;
11620;SDS011;5866;49.094;11.900;2022-08-05T06:55:55;105.10;;;99.68;;
11620;SDS011;5866;49.094;11.900;2022-08-05T06:58:23;129.27;;;122.65;;
11620;SDS011;5866;49.094;11.900;2022-08-05T07:01:03;125.13;;;118.45;;
11620;SDS011;5866;49.094;11.900;2022-08-05T07:03:32;113.05;;;107.32;;
11620;SDS011;5866;49.094;11.900;2022-08-05T07:06:00;128.13;;;121.68;;
11620;SDS011;5866;49.094;11.900;2022-08-05T07:08:39;128.43;;;121.88;;
11620;SDS011;5866;49.094;11.900;2022-08-05T07:11:08;128.85;;;122.32;;
11620;SDS011;5866;49.094;11.900;2022-08-05T07:13:40;104.85;;;99.55;;
11620;SDS011;5866;49.094;11.900;2022-08-05T07:16:26;66.85;;;63.25;;
11620;SDS011;5866;49.094;11.900;2022-08-05T07:19:31;108.55;;;102.93;;
11620;SDS011;5866;49.094;11.900;2022-08-05T07:22:19;76.00;;;71.88;;
11620;SDS011;5866;49.094;11.900;2022-08-05T07:24:54;88.82;;;84.10;;
11620;SDS011;5866;49.094;11.900;2022-08-05T07:27:25;58.00;;;54.80;;
11620;SDS011;5866;49.094;11.900;2022-08-05T07:30:13;53.80;;;50.70;;
11620;SDS011;5866;49.094;11.900;2022-08-05T07:32:56;90.60;;;85.60;;
11620;SDS011;5866;49.094;11.900;2022-08-05T07:35:23;20.67;;;19.52;;
11620;SDS011;5866;49.094;11.900;2022-08-05T07:38:11;48.10;;;45.47;;
11620;SDS011;5866;49.094;11.900;2022-08-05T07:40:59;20.02;;;18.67;;
11620;SDS011;5866;49.094;11.900;2022-08-05T07:43:49;27.25;;;25.70;;
11620;SDS011;5866;49.094;11.900;2022-08-05T07:46:16;22.65;;;21.15;;
11620;SDS011;5866;49.094;11.900;2022-08-05T07:48:51;37.08;;;34.85;;
11620;SDS011;5866;49.094;11.900;2022-08-05T07:51:30;17.67;;;16.40;;
11620;SDS011;5866;49.094;11.900;2022-08-05T07:54:05;18.65;;;17.23;;
11620;SDS011;5866;49.094;11.900;2022-08-05T07:56:35;18.80;;;17.63;;
11620;SDS011;5866;49.094;11.900;2022-08-05T07:59:24;15.60;;;14.73;;
11620;SDS011;5866;49.094;11.900;2022-08-05T08:02:06;17.73;;;16.67;;
11620;SDS011;5866;49.094;11.900;2022-08-05T08:04:42;15.55;;;14.65;;
11620;SDS011;5866;49.094;11.900;2022-08-05T08:07:11;25.40;;;23.80;;
11620;SDS011;5866;49.094;11.900;2022-08-05T08:09:38;22.55;;;21.17;;
11620;SDS011;5866;49.094;11.900;2022-08-05T08:12:06;10.80;;;10.10;;
11620;SDS011;5866;49.094;11.900;2022-08-05T08:14:55;22.70;;;21.42;;
11620;SDS011;5866;49.094;11.900;2022-08-05T08:17:27;27.50;;;25.80;;
11620;SDS011;5866;49.094;11.900;2022-08-05T08:19:55;33.13;;;31.25;;
11620;SDS011;5866;49.094;11.900;2022-08-05T08:22:48;13.50;;;12.50;;
11620;SDS011;5866;49.094;11.900;2022-08-05T08:25:17;26.10;;;24.50;;
11620;SDS011;5866;49.094;11.900;2022-08-05T08:28:04;21.35;;;19.75;;
11620;SDS011;5866;49.094;11.900;2022-08-05T08:30:45;19.65;;;18.52;;
11620;SDS011;5866;49.094;11.900;2022-08-05T08:33:15;18.67;;;17.50;;
11620;SDS011;5866;49.094;11.900;2022-08-05T08:35:44;12.77;;;12.07;;
11620;SDS011;5866;49.094;11.900;2022-08-05T08:38:23;17.48;;;16.48;;
11620;SDS011;5866;49.094;11.900;2022-08-05T08:41:02;15.15;;;14.20;;
11620;SDS011;5866;49.094;11.900;2022-08-05T08:43:32;31.02;;;29.25;;
11620;SDS011;5866;49.094;11.900;2022-08-05T08:46:22;43.80;;;41.28;;
11620;SDS011;5866;49.094;11.900;2022-08-05T08:48:53;14.70;;;13.82;;
11620;SDS011;5866;49.094;11.900;2022-08-05T08:51:41;29.40;;;27.70;;
11620;SDS011;5866;49.094;11.900;2022-08-05T08:54:31;12.45;;;11.63;;
11620;SDS011;5866;49.094;11.900;2022-08-05T08:57:02;30.58;;;28.80;;
11620;SDS011;5866;49.094;11.900;2022-08-05T08:59:36;26.15;;;24.50;;
11620;SDS011;5866;49.094;11.900;2022-08-05T09:02:13;18.60;;;17.20;;
11620;SDS011;5866;49.094;11.900;2022-08-05T09:04:44;16.17;;;15.27;;
11620;SDS011;5866;49.094;11.900;2022-08-05T09:07:32;14.95;;;13.90;;
11620;SDS011;5866;49.094;11.900;2022-08-05T09:10:20;16.02;;;15.13;;
11620;SDS011;5866;49.094;11.900;2022-08-05T09:12:53;19.42;;;18.30;;
11620;SDS011;5866;49.094;11.900;2022-08-05T09:15:21;16.70;;;15.57;;
11620;SDS011;5866;49.094;11.900;2022-08-05T09:17:51;12.98;;;11.98;;
11620;SDS011;5866;49.094;11.900;2022-08-05T09:20:19;14.05;;;13.25;;
11620;SDS011;5866;49.094;11.900;2022-08-05T09:23:12;19.45;;;18.40;;
11620;SDS011;5866;49.094;11.900;2022-08-05T09:25:47;15.93;;;14.98;;
11620;SDS011;5866;49.094;11.900;2022-08-05T09:28:29;15.68;;;14.77;;
11620;SDS011;5866;49.094;11.900;2022-08-05T09:31:00;22.40;;;21.02;;
11620;SDS011;5866;49.094;11.900;2022-08-05T09:33:52;19.67;;;18.42;;
11620;SDS011;5866;49.094;11.900;2022-08-05T09:36:21;14.68;;;13.70;;
11620;SDS011;5866;49.094;11.900;2022-08-05T09:38:59;16.95;;;16.05;;
11620;SDS011;5866;49.094;11.900;2022-08-05T09:41:56;15.00;;;14.20;;
11620;SDS011;5866;49.094;11.900;2022-08-05T09:44:34;13.70;;;12.90;;
11620;SDS011;5866;49.094;11.900;2022-08-05T09:47:06;13.20;;;12.40;;
11620;SDS011;5866;49.094;11.900;2022-08-05T09:49:44;18.35;;;17.10;;
11620;SDS011;5866;49.094;11.900;2022-08-05T09:52:27;10.77;;;10.15;;
11620;SDS011;5866;49.094;11.900;2022-08-05T09:54:57;19.10;;;17.98;;
11620;SDS011;5866;49.094;11.900;2022-08-05T09:57:46;18.80;;;17.67;;
11620;SDS011;5866;49.094;11.900;2022-08-05T10:00:14;21.35;;;20.15;;
11620;SDS011;5866;49.094;11.900;2022-08-05T10:02:45;19.60;;;18.50;;
11620;SDS011;5866;49.094;11.900;2022-08-05T10:05:16;15.75;;;14.90;;
11620;SDS011;5866;49.094;11.900;2022-08-05T10:07:51;19.85;;;18.60;;
11620;SDS011;5866;49.094;11.900;2022-08-05T10:10:45;15.25;;;14.40;;
11620;SDS011;5866;49.094;11.900;2022-08-05T10:13:25;13.75;;;13.05;;
11620;SDS011;5866;49.094;11.900;2022-08-05T10:16:30;12.60;;;11.90;;
11620;SDS011;5866;49.094;11.900;2022-08-05T10:19:03;11.60;;;10.82;;
11620;SDS011;5866;49.094;11.900;2022-08-05T10:21:36;13.73;;;12.95;;
11620;SDS011;5866;49.094;11.900;2022-08-05T10:24:06;14.68;;;13.85;;
11620;SDS011;5866;49.094;11.900;2022-08-05T10:26:36;12.50;;;11.70;;
11620;SDS011;5866;49.094;11.900;2022-08-05T10:29:18;15.38;;;14.48;;
11620;SDS011;5866;49.094;11.900;2022-08-05T10:32:07;14.93;;;14.13;;
11620;SDS011;5866;49.094;11.900;2022-08-05T10:34:55;18.10;;;17.08;;
11620;SDS011;5866;49.094;11.900;2022-08-05T10:37:27;13.48;;;12.68;;
11620;SDS011;5866;49.094;11.900;2022-08-05T10:40:13;11.32;;;10.68;;
11620;SDS011;5866;49.094;11.900;2022-08-05T10:42:55;10.68;;;10.07;;
11620;SDS011;5866;49.094;11.900;2022-08-05T10:45:36;12.35;;;11.25;;
11620;SDS011;5866;49.094;11.900;2022-08-05T10:48:27;9.05;;;8.55;;
11620;SDS011;5866;49.094;11.900;2022-08-05T10:51:07;11.73;;;11.02;;
11620;SDS011;5866;49.094;11.900;2022-08-05T10:53:53;12.45;;;11.55;;
11620;SDS011;5866;49.094;11.900;2022-08-05T10:56:27;10.20;;;9.60;;
11620;SDS011;5866;49.094;11.900;2022-08-05T10:59:03;10.98;;;10.38;;
11620;SDS011;5866;49.094;11.900;2022-08-05T11:02:04;10.88;;;10.18;;
11620;SDS011;5866;49.094;11.900;2022-08-05T11:04:41;8.85;;;8.35;;
11620;SDS011;5866;49.094;11.900;2022-08-05T11:07:09;10.27;;;9.48;;
11620;SDS011;5866;49.094;11.900;2022-08-05T11:09:45;8.85;;;8.35;;
11620;SDS011;5866;49.094;11.900;2022-08-05T11:15:22;15.80;;;14.80;;
11620;SDS011;5866;49.094;11.900;2022-08-05T11:18:21;10.13;;;9.52;;
11620;SDS011;5866;49.094;11.900;2022-08-05T11:20:52;12.88;;;12.07;;
11620;SDS011;5866;49.094;11.900;2022-08-05T11:23:27;14.00;;;13.15;;
11620;SDS011;5866;49.094;11.900;2022-08-05T11:26:20;12.07;;;11.30;;
11620;SDS011;5866;49.094;11.900;2022-08-05T11:28:57;11.05;;;10.43;;
11620;SDS011;5866;49.094;11.900;2022-08-05T11:31:39;11.38;;;10.60;;
11620;SDS011;5866;49.094;11.900;2022-08-05T11:34:35;23.02;;;21.60;;
11620;SDS011;5866;49.094;11.900;2022-08-05T11:37:04;11.18;;;10.45;;
11620;SDS011;5866;49.094;11.900;2022-08-05T11:39:52;11.25;;;10.55;;
11620;SDS011;5866;49.094;11.900;2022-08-05T11:42:30;11.80;;;11.07;;
11620;SDS011;5866;49.094;11.900;2022-08-05T11:45:06;10.25;;;9.68;;
11620;SDS011;5866;49.094;11.900;2022-08-05T11:47:54;11.85;;;11.20;;
11620;SDS011;5866;49.094;11.900;2022-08-05T11:50:23;11.60;;;10.68;;
11620;SDS011;5866;49.094;11.900;2022-08-05T11:52:51;12.63;;;11.93;;
11620;SDS011;5866;49.094;11.900;2022-08-05T11:55:23;10.23;;;9.63;;
11620;SDS011;5866;49.094;11.900;2022-08-05T11:58:02;10.68;;;10.07;;
11620;SDS011;5866;49.094;11.900;2022-08-05T12:00:37;10.38;;;9.57;;
11620;SDS011;5866;49.094;11.900;2022-08-05T12:03:16;15.48;;;14.68;;
11620;SDS011;5866;49.094;11.900;2022-08-05T12:05:57;11.20;;;10.40;;
11620;SDS011;5866;49.094;11.900;2022-08-05T12:08:26;10.25;;;9.55;;
11620;SDS011;5866;49.094;11.900;2022-08-05T12:10:57;10.70;;;9.77;;
11620;SDS011;5866;49.094;11.900;2022-08-05T12:13:32;11.07;;;10.40;;
11620;SDS011;5866;49.094;11.900;2022-08-05T12:16:16;8.60;;;8.10;;
11620;SDS011;5866;49.094;11.900;2022-08-05T12:18:50;9.93;;;9.23;;
11620;SDS011;5866;49.094;11.900;2022-08-05T12:21:20;10.07;;;9.50;;
11620;SDS011;5866;49.094;11.900;2022-08-05T12:23:52;7.95;;;7.18;;
11620;SDS011;5866;49.094;11.900;2022-08-05T12:26:30;11.20;;;10.40;;
11620;SDS011;5866;49.094;11.900;2022-08-05T12:28:59;9.63;;;9.13;;
11620;SDS011;5866;49.094;11.900;2022-08-05T12:31:29;9.73;;;8.95;;
11620;SDS011;5866;49.094;11.900;2022-08-05T12:34:10;9.90;;;9.32;;
11620;SDS011;5866;49.094;11.900;2022-08-05T12:36:46;10.85;;;10.25;;
11620;SDS011;5866;49.094;11.900;2022-08-05T12:39:16;10.48;;;9.68;;
11620;SDS011;5866;49.094;11.900;2022-08-05T12:41:44;11.02;;;10.27;;
11620;SDS011;5866;49.094;11.900;2022-08-05T12:44:15;8.52;;;7.85;;
11620;SDS011;5866;49.094;11.900;2022-08-05T12:46:59;8.75;;;8.27;;
11620;SDS011;5866;49.094;11.900;2022-08-05T12:49:37;11.55;;;10.82;;
11620;SDS011;5866;49.094;11.900;2022-08-05T12:52:26;8.93;;;8.43;;
11620;SDS011;5866;49.094;11.900;2022-08-05T12:55:07;10.85;;;10.15;;
11620;SDS011;5866;49.094;11.900;2022-08-05T12:57:47;9.90;;;9.05;;
11620;SDS011;5866;49.094;11.900;2022-08-05T13:00:39;9.98;;;9.38;;
11620;SDS011;5866;49.094;11.900;2022-08-05T13:03:28;8.07;;;7.47;;
11620;SDS011;5866;49.094;11.900;2022-08-05T13:05:58;13.77;;;13.00;;
11620;SDS011;5866;49.094;11.900;2022-08-05T13:08:27;8.80;;;8.30;;
11620;SDS011;5866;49.094;11.900;2022-08-05T13:10:58;8.52;;;7.72;;
11620;SDS011;5866;49.094;11.900;2022-08-05T13:13:26;7.20;;;6.80;;
11620;SDS011;5866;49.094;11.900;2022-08-05T13:16:15;6.90;;;6.50;;
11620;SDS011;5866;49.094;11.900;2022-08-05T13:18:51;8.27;;;7.78;;
11620;SDS011;5866;49.094;11.900;2022-08-05T13:21:20;9.07;;;8.57;;
11620;SDS011;5866;49.094;11.900;2022-08-05T13:23:53;8.73;;;8.23;;
11620;SDS011;5866;49.094;11.900;2022-08-05T13:26:23;8.25;;;7.75;;
11620;SDS011;5866;49.094;11.900;2022-08-05T13:28:55;7.95;;;7.45;;
11620;SDS011;5866;49.094;11.900;2022-08-05T13:31:27;8.38;;;7.90;;
11620;SDS011;5866;49.094;11.900;2022-08-05T13:34:14;8.25;;;7.75;;
11620;SDS011;5866;49.094;11.900;2022-08-05T13:36:50;6.88;;;6.28;;
11620;SDS011;5866;49.094;11.900;2022-08-05T13:39:18;9.05;;;8.55;;
11620;SDS011;5866;49.094;11.900;2022-08-05T13:42:06;7.95;;;7.45;;
11620;SDS011;5866;49.094;11.900;2022-08-05T13:44:40;9.93;;;9.32;;
11620;SDS011;5866;49.094;11.900;2022-08-05T13:47:12;7.10;;;6.70;;
11620;SDS011;5866;49.094;11.900;2022-08-05T13:50:01;8.25;;;7.72;;
11620;SDS011;5866;49.094;11.900;2022-08-05T13:52:37;8.88;;;8.18;;
11620;SDS011;5866;49.094;11.900;2022-08-05T13:55:06;6.57;;;6.15;;
11620;SDS011;5866;49.094;11.900;2022-08-05T13:57:35;8.15;;;7.55;;
11620;SDS011;5866;49.094;11.900;2022-08-05T14:00:17;7.93;;;7.53;;
11620;SDS011;5866;49.094;11.900;2022-08-05T14:02:54;9.13;;;8.63;;
11620;SDS011;5866;49.094;11.900;2022-08-05T14:05:22;7.68;;;7.28;;
11620;SDS011;5866;49.094;11.900;2022-08-05T14:08:10;10.05;;;9.40;;
11620;SDS011;5866;49.094;11.900;2022-08-05T14:10:45;6.90;;;6.50;;
11620;SDS011;5866;49.094;11.900;2022-08-05T14:13:13;6.93;;;6.50;;
11620;SDS011;5866;49.094;11.900;2022-08-05T14:15:41;12.35;;;11.65;;
11620;SDS011;5866;49.094;11.900;2022-08-05T14:18:30;6.68;;;6.28;;
11620;SDS011;5866;49.094;11.900;2022-08-05T14:20:57;8.23;;;7.72;;
11620;SDS011;5866;49.094;11.900;2022-08-05T14:23:45;8.38;;;7.88;;
11620;SDS011;5866;49.094;11.900;2022-08-05T14:26:13;7.28;;;6.78;;
11620;SDS011;5866;49.094;11.900;2022-08-05T14:29:01;9.63;;;8.65;;
11620;SDS011;5866;49.094;11.900;2022-08-05T14:31:28;12.02;;;11.32;;
11620;SDS011;5866;49.094;11.900;2022-08-05T14:34:17;8.60;;;8.10;;
11620;SDS011;5866;49.094;11.900;2022-08-05T14:36:48;8.57;;;8.05;;
11620;SDS011;5866;49.094;11.900;2022-08-05T14:39:16;9.98;;;9.20;;
11620;SDS011;5866;49.094;11.900;2022-08-05T14:41:48;8.60;;;7.95;;
11620;SDS011;5866;49.094;11.900;2022-08-05T14:44:36;7.18;;;6.60;;
11620;SDS011;5866;49.094;11.900;2022-08-05T14:47:03;7.05;;;6.45;;
11620;SDS011;5866;49.094;11.900;2022-08-05T14:49:35;8.00;;;7.50;;
11620;SDS011;5866;49.094;11.900;2022-08-05T14:52:22;9.00;;;8.40;;
11620;SDS011;5866;49.094;11.900;2022-08-05T14:55:10;8.52;;;8.02;;
11620;SDS011;5866;49.094;11.900;2022-08-05T14:57:40;8.20;;;7.72;;
11620;SDS011;5866;49.094;11.900;2022-08-05T15:00:21;7.68;;;7.22;;
11620;SDS011;5866;49.094;11.900;2022-08-05T15:02:53;12.65;;;11.65;;
11620;SDS011;5866;49.094;11.900;2022-08-05T15:05:22;9.38;;;8.82;;
11620;SDS011;5866;49.094;11.900;2022-08-05T15:07:55;8.02;;;7.50;;
11620;SDS011;5866;49.094;11.900;2022-08-05T15:10:38;7.78;;;7.38;;
11620;SDS011;5866;49.094;11.900;2022-08-05T15:13:11;8.95;;;8.35;;
11620;SDS011;5866;49.094;11.900;2022-08-05T15:15:38;7.28;;;6.85;;
11620;SDS011;5866;49.094;11.900;2022-08-05T15:18:19;8.85;;;8.35;;
11620;SDS011;5866;49.094;11.900;2022-08-05T15:20:49;8.27;;;7.57;;
11620;SDS011;5866;49.094;11.900;2022-08-05T15:23:17;6.15;;;5.85;;